AirNav   Air Wisconsin pilot careers
 
 829 users online  

UT10 Cedar Valley Airport
Eagle Mountain, Utah, USA

GOING TO EAGLE MOUNTAIN?


FAA INFORMATION EFFECTIVE 12 SEPTEMBER 2019

Location

FAA Identifier: UT10
Lat/Long: 40-21-33.5600N 112-01-05.4900W
40-21.559333N 112-01.091500W
40.3593222,-112.0181917
(estimated)
Elevation: 5000 ft. / 1524 m (estimated)
Variation: 15E (1985)
From city: 3 miles N of EAGLE MOUNTAIN, UT
Time zone: UTC -6 (UTC -7 during Standard Time)
Zip code: 84043

Airport Operations

Airport use: Private use. Permission required prior to landing
Activation date: 06/1973
Control tower: no
ARTCC: SALT LAKE CITY CENTER
FSS: CEDAR CITY FLIGHT SERVICE STATION
Attendance: DAYLIGHT HOURS
Wind indicator: yes
Segmented circle: no

Airport Communications

WX AWOS-3 at U42 (16 nm N): 134.425 (801-562-0271)
WX AWOS-3PT at PVU (16 nm SE): 135.175 (801-373-9782)

Nearby radio navigation aids

VOR radial/distance  VOR name  Freq  Var
FFUr309/6.2FAIRFIELD VORTAC116.6016E
PVUr288/16.1PROVO VOR/DME108.4015E
TCHr167/29.5WASATCH VORTAC116.8016E

Airport Services

Runway Information

Runway 17/35

Dimensions: 5100 x 100 ft. / 1554 x 30 m
Surface: gravel
RUNWAY 17  RUNWAY 35
Traffic pattern: rightright

Airport Ownership and Management from official FAA records

Ownership: Privately-owned
Owner: LARRY PATTERSON
48 WEST 1010 NORTH
AMERICAN FORT, UT 84003
Phone (801) 636-8405
Manager: KENT PRICE
2344 VALLEY DRIVE
EAGLE MOUNTAIN, UT 84005
Phone (801) 554-0015

Airport Operational Statistics

Aircraft based on the field: 5
Single engine airplanes: 4
Multi engine airplanes: 1
    

Additional Remarks

GLIDER, POWERED PARACHUTING AND SKYDIVING ACTIVITY ON & INVOF ARPT.
FOR CD CTC SALT LAKE CITY APCH AT 801-325-9670.

Instrument Procedures

There are no published instrument procedures at UT10.

Some nearby airports with instrument procedures:

U42 - South Valley Regional Airport (16 nm N)
KPVU - Provo Municipal Airport (16 nm SE)
KSPK - Spanish Fork Airport Springville-Woodhouse Field (21 nm SE)
KTVY - Bolinder Field-Tooele Valley Airport (21 nm NW)
KSLC - Salt Lake City International Airport (26 nm N)
 
Loc | Ops | Rwys | IFR | FBO | Links
Com | Nav | Svcs | Stats | Notes
Area around UT10 (Cedar Valley Airport)
 
Road maps at: MapQuest Bing Google
 
Aerial photo
WARNING: Photo may not be current or correct
Aerial photo of UT10 (Cedar Valley Airport)
Photo by Creighton King
Taken in November 2007
looking northeast

Do you have a better or more recent aerial photo of Cedar Valley Airport that you would like to share? If so, please send us your photo.

 
Sectional chart

 
Airport distance calculator
Flying to Cedar Valley Airport? Find the distance to fly.

From to UT10

Sunrise and sunset
Times for 22-Sep-2019
 Local
(UTC-6)
 Zulu
(UTC)
Morning civil twilight06:4912:49
Sunrise07:1713:17
Sunset19:2501:25
Evening civil twilight19:5201:52

Current date and time
Zulu (UTC)  23-Sep-2019 02:13:02
Local (UTC-6)  22-Sep-2019 20:13:02
 
METAR
KU42 
15nm N 
230155Z AUTO 23005KT 10SM CLR 17/04 A3005 RMK AO1 T01680039
KPVU 
16nm SE 
230156Z 26003KT 10SM SCT200 17/12 A3005 RMK AO2 SLP154 T01720122
KTVY 
21nm NW 
230155Z AUTO 00000KT 10SM CLR 16/07 A3003 RMK AO2
KSLC 
26nm N 
230154Z 36005KT 10SM FEW200 18/04 A3002 RMK AO2 SLP137 T01780039
KHCR 
28nm E 
230155Z AUTO 13003KT 10SM CLR 12/00 A3009 RMK AO2
TAF
KPVU 
16nm SE 
221729Z 2218/2318 VRB05KT P6SM SKC
NOTAMs
Click for the latest NOTAMs
NOTAMs are issued by the DoD/FAA and will open in a separate window not controlled by AirNav.

 

 
 

Would you like to see your business listed on this page?

 If your business provides an interesting product or service to pilots, flight crews, aircraft, or users of the Cedar Valley Airport, you should consider listing it here.  To start the listing process, click on the button below
 
Add a business
 

Other Pages about Cedar Valley Airport

Update a link
 
Copyright © AirNav, LLC. All rights reserved. Privacy Policy  Contact